createdAt,value
2022-09-28T00:00:29.340Z,9.65
2022-09-28T00:01:31.569Z,9.56
2022-09-28T00:02:35.284Z,9.50
2022-09-28T00:03:37.628Z,9.43
2022-09-28T00:04:39.775Z,9.37
2022-09-28T00:05:41.938Z,9.43
2022-09-28T00:06:44.273Z,9.47
2022-09-28T00:07:46.815Z,9.44
2022-09-28T00:08:52.074Z,9.47
2022-09-28T00:09:54.581Z,9.29
2022-09-28T00:10:57.753Z,9.45
2022-09-28T00:12:00.023Z,9.44
2022-09-28T00:13:02.680Z,9.44
2022-09-28T00:14:07.260Z,9.40
2022-09-28T00:15:09.798Z,9.40
2022-09-28T00:16:14.851Z,9.41
2022-09-28T00:17:17.119Z,9.54
2022-09-28T00:18:19.544Z,9.66
2022-09-28T00:19:21.770Z,9.64
2022-09-28T00:20:24.096Z,9.57
2022-09-28T00:21:29.988Z,9.55
2022-09-28T00:22:32.407Z,9.43
2022-09-28T00:23:55.771Z,9.34
2022-09-28T00:24:58.099Z,9.46
2022-09-28T00:26:05.326Z,9.46
2022-09-28T00:27:09.316Z,9.48
2022-09-28T00:28:11.727Z,9.49
2022-09-28T00:29:22.003Z,9.52
2022-09-28T00:30:24.319Z,9.59
2022-09-28T00:31:29.089Z,9.57
2022-09-28T00:32:31.388Z,9.51
2022-09-28T00:33:33.566Z,9.49
2022-09-28T00:34:38.967Z,9.44
2022-09-28T00:35:41.256Z,9.56
2022-09-28T00:36:45.625Z,9.66
2022-09-28T00:37:49.035Z,9.59
2022-09-28T00:38:52.198Z,9.61
2022-09-28T00:39:54.392Z,9.61
2022-09-28T00:40:56.717Z,9.62
2022-09-28T00:41:59.578Z,9.58
2022-09-28T00:43:17.567Z,9.50
2022-09-28T00:44:22.447Z,9.53
2022-09-28T00:45:26.301Z,9.54
2022-09-28T00:46:35.268Z,9.54
2022-09-28T00:47:55.716Z,9.48
2022-09-28T00:49:07.426Z,9.43
2022-09-28T00:50:26.065Z,9.47
2022-09-28T00:51:29.343Z,9.46
2022-09-28T00:52:53.206Z,9.45
2022-09-28T00:53:56.810Z,9.47
2022-09-28T00:55:02.093Z,9.49
2022-09-28T00:56:11.917Z,9.27
2022-09-28T00:57:15.336Z,9.34
2022-09-28T00:58:21.276Z,9.45
2022-09-28T00:59:24.742Z,9.42
2022-09-28T01:00:27.686Z,9.49
2022-09-28T01:01:30.443Z,9.54
2022-09-28T01:02:32.996Z,9.46
2022-09-28T01:03:37.195Z,9.46
2022-09-28T01:04:39.518Z,9.46
2022-09-28T01:05:43.281Z,9.47
2022-09-28T01:06:46.963Z,9.50
2022-09-28T01:07:50.505Z,9.62
2022-09-28T01:08:55.564Z,9.66
2022-09-28T01:09:58.733Z,9.66
2022-09-28T01:11:02.004Z,9.69
2022-09-28T01:12:04.637Z,9.55
2022-09-28T01:13:06.957Z,9.47
2022-09-28T01:14:14.642Z,9.48
2022-09-28T01:15:16.930Z,9.46
2022-09-28T01:16:43.290Z,9.43
2022-09-28T01:18:01.820Z,9.50
2022-09-28T01:19:34.547Z,9.39
2022-09-28T01:20:54.007Z,9.49
2022-09-28T01:22:23.822Z,9.56
2022-09-28T01:23:47.172Z,9.52
2022-09-28T01:25:01.185Z,9.48
2022-09-28T01:26:25.126Z,9.43
2022-09-28T01:27:36.245Z,9.45
2022-09-28T01:28:42.969Z,9.43
2022-09-28T01:29:51.552Z,9.42
2022-09-28T01:31:19.736Z,9.41
2022-09-28T01:32:38.216Z,9.44
2022-09-28T01:33:56.355Z,9.42
2022-09-28T01:35:15.146Z,9.46
2022-09-28T01:36:36.700Z,9.50
2022-09-28T01:37:52.181Z,9.47
2022-09-28T01:39:13.363Z,9.58
2022-09-28T01:40:16.998Z,9.58
2022-09-28T01:41:25.845Z,9.63
2022-09-28T01:42:31.554Z,9.41
2022-09-28T01:43:41.271Z,9.42
2022-09-28T01:44:47.382Z,9.49
2022-09-28T01:46:12.896Z,9.62
2022-09-28T01:47:19.534Z,9.61
2022-09-28T01:48:29.072Z,9.55
2022-09-28T01:49:43.843Z,9.42
2022-09-28T01:50:49.687Z,9.41
2022-09-28T01:52:00.671Z,9.42
2022-09-28T01:53:25.852Z,9.46
2022-09-28T01:54:37.242Z,9.35
2022-09-28T01:55:50.554Z,9.41
2022-09-28T01:57:07.061Z,9.41
2022-09-28T01:58:21.979Z,9.32
2022-09-28T01:59:32.173Z,9.58
2022-09-28T02:00:38.682Z,9.67
2022-09-28T02:01:49.064Z,9.79
2022-09-28T02:03:00.452Z,9.91
2022-09-28T02:04:23.230Z,9.90
2022-09-28T02:05:37.572Z,9.61
2022-09-28T02:06:51.937Z,9.51
2022-09-28T02:08:03.843Z,9.53
2022-09-28T02:09:13.241Z,9.57
2022-09-28T02:10:25.988Z,9.39
2022-09-28T02:11:28.379Z,9.55
2022-09-28T02:12:42.719Z,9.42
2022-09-28T02:13:54.199Z,9.45
2022-09-28T02:15:06.394Z,9.57
2022-09-28T02:16:19.718Z,9.76
2022-09-28T02:17:24.388Z,9.85
2022-09-28T02:18:26.645Z,9.83
2022-09-28T02:19:31.924Z,9.65
2022-09-28T02:20:36.361Z,9.61
2022-09-28T02:22:24.665Z,9.49
2022-09-28T02:23:35.075Z,9.43
2022-09-28T02:24:54.918Z,9.43
2022-09-28T02:26:09.009Z,9.44
2022-09-28T02:27:21.777Z,9.65
2022-09-28T02:28:24.158Z,9.69
2022-09-28T02:29:27.648Z,9.54
2022-09-28T02:30:30.853Z,9.52
2022-09-28T02:31:33.200Z,9.50
2022-09-28T02:32:40.220Z,9.63
2022-09-28T02:33:44.669Z,9.54
2022-09-28T02:34:47.025Z,9.42
2022-09-28T02:35:49.372Z,9.58
2022-09-28T02:36:53.884Z,9.61
2022-09-28T02:37:56.476Z,9.45
2022-09-28T02:38:58.830Z,9.55
2022-09-28T02:40:01.539Z,9.68
2022-09-28T02:41:31.944Z,9.79
2022-09-28T02:42:47.920Z,9.64
2022-09-28T02:44:07.364Z,9.58
2022-09-28T02:45:25.534Z,9.62
2022-09-28T02:46:36.136Z,9.56
2022-09-28T02:47:56.568Z,9.72
2022-09-28T02:49:22.133Z,9.67
2022-09-28T02:50:49.682Z,9.63
2022-09-28T02:52:04.450Z,9.69
2022-09-28T02:53:48.135Z,9.74
2022-09-28T02:55:17.939Z,9.75
2022-09-28T02:56:52.228Z,9.72
2022-09-28T02:58:35.687Z,9.63
2022-09-28T03:00:12.961Z,9.67
2022-09-28T03:01:44.913Z,9.74
2022-09-28T03:03:32.685Z,9.82
2022-09-28T03:04:42.298Z,9.80
2022-09-28T03:06:05.385Z,9.72
2022-09-28T03:07:41.610Z,9.75
2022-09-28T03:08:54.422Z,9.88
2022-09-28T03:10:05.472Z,9.92
2022-09-28T03:11:14.586Z,9.92
2022-09-28T03:12:20.706Z,9.81
2022-09-28T03:13:25.981Z,9.92
2022-09-28T03:14:28.128Z,9.92
2022-09-28T03:15:34.845Z,9.84
2022-09-28T03:16:37.545Z,9.77
2022-09-28T03:17:40.260Z,9.81
2022-09-28T03:18:43.201Z,9.90
2022-09-28T03:19:45.619Z,9.85
2022-09-28T03:20:50.031Z,9.91
2022-09-28T03:21:52.293Z,9.78
2022-09-28T03:23:20.073Z,9.81
2022-09-28T03:24:17.259Z,9.79
2022-09-28T03:25:19.435Z,9.87
2022-09-28T03:26:22.008Z,9.89
2022-09-28T03:27:24.276Z,9.93
2022-09-28T03:34:33.565Z,9.82
2022-09-28T03:35:35.759Z,9.81
2022-09-28T03:36:38.147Z,9.71
2022-09-28T03:37:40.808Z,9.75
2022-09-28T03:38:43.107Z,9.75
2022-09-28T03:39:46.262Z,9.89
2022-09-28T03:40:59.516Z,9.84
2022-09-28T03:42:03.778Z,9.66
2022-09-28T03:43:08.784Z,9.70
2022-09-28T03:44:11.528Z,9.72
2022-09-28T03:45:14.250Z,9.62
2022-09-28T03:46:16.558Z,9.66
2022-09-28T03:47:25.382Z,9.70
2022-09-28T03:48:33.213Z,9.73
2022-09-28T03:49:35.690Z,9.69
2022-09-28T03:50:38.011Z,9.68
2022-09-28T03:51:40.407Z,9.68
2022-09-28T03:52:44.342Z,9.62
2022-09-28T03:53:46.558Z,9.59
2022-09-28T03:54:49.477Z,9.68
2022-09-28T03:55:56.012Z,9.74
2022-09-28T03:56:58.507Z,9.67
2022-09-28T03:58:00.753Z,9.56
2022-09-28T03:59:04.165Z,9.55
2022-09-28T04:00:07.149Z,9.63
2022-09-28T04:01:17.712Z,9.75
2022-09-28T04:02:21.940Z,9.64
2022-09-28T04:03:24.174Z,9.64
2022-09-28T04:04:26.421Z,9.75
2022-09-28T04:05:28.707Z,9.80
2022-09-28T04:06:31.016Z,9.82
2022-09-28T04:07:33.246Z,9.83
2022-09-28T04:08:35.494Z,9.80
2022-09-28T04:09:38.067Z,9.75
2022-09-28T04:10:40.519Z,9.61
2022-09-28T04:11:59.816Z,9.67
2022-09-28T04:13:05.391Z,9.59
2022-09-28T04:14:07.648Z,9.67
2022-09-28T04:15:10.250Z,9.72
2022-09-28T04:16:12.524Z,9.79
2022-09-28T04:17:18.362Z,9.73
2022-09-28T04:18:21.651Z,9.70
2022-09-28T04:19:34.811Z,9.67
2022-09-28T04:21:09.219Z,9.66
2022-09-28T04:22:24.195Z,9.80
2022-09-28T04:23:27.780Z,9.86
2022-09-28T04:24:29.961Z,10.02
2022-09-28T04:25:32.166Z,10.00
2022-09-28T04:26:34.376Z,10.00
2022-09-28T04:27:55.429Z,10.01
2022-09-28T04:29:23.682Z,9.93
2022-09-28T04:30:31.048Z,9.96
2022-09-28T04:31:47.506Z,9.86
2022-09-28T04:32:50.579Z,10.00
2022-09-28T04:33:53.747Z,9.85
2022-09-28T04:34:55.963Z,9.68
2022-09-28T04:35:58.193Z,9.65
2022-09-28T04:37:00.757Z,9.67
2022-09-28T04:38:03.095Z,9.69
2022-09-28T04:39:06.032Z,9.66
2022-09-28T04:40:09.072Z,9.65
2022-09-28T04:41:12.204Z,9.60
2022-09-28T04:42:15.909Z,9.60
2022-09-28T04:43:18.235Z,9.61
2022-09-28T04:44:20.412Z,9.52
2022-09-28T04:45:28.513Z,9.55
2022-09-28T04:46:36.453Z,9.60
2022-09-28T04:48:11.020Z,9.51
2022-09-28T04:49:33.656Z,9.53
2022-09-28T04:50:44.245Z,9.54
2022-09-28T04:51:54.666Z,9.53
2022-09-28T04:52:56.995Z,9.60
2022-09-28T04:53:59.385Z,9.47
2022-09-28T04:55:01.666Z,9.52
2022-09-28T04:56:10.609Z,9.70
2022-09-28T04:57:13.947Z,9.61
2022-09-28T04:58:16.772Z,9.56
2022-09-28T04:59:19.018Z,9.50
2022-09-28T05:00:21.582Z,9.57
2022-09-28T05:01:39.545Z,9.59
2022-09-28T05:03:00.189Z,9.46
2022-09-28T05:04:25.578Z,9.56
2022-09-28T05:05:47.593Z,9.60
2022-09-28T05:07:05.327Z,9.51
2022-09-28T05:08:08.250Z,9.47
2022-09-28T05:09:10.719Z,9.41
2022-09-28T05:10:13.259Z,9.39
2022-09-28T05:11:16.002Z,9.46
2022-09-28T05:12:18.627Z,9.50
2022-09-28T05:13:20.940Z,9.69
2022-09-28T05:14:23.207Z,9.74
2022-09-28T05:15:26.633Z,9.78
2022-09-28T05:16:30.832Z,9.86
2022-09-28T05:17:52.678Z,9.85
2022-09-28T05:18:58.100Z,9.92
2022-09-28T05:20:00.654Z,9.88
2022-09-28T05:21:03.384Z,9.81
2022-09-28T05:22:07.193Z,9.83
2022-09-28T05:23:15.503Z,9.84
2022-09-28T05:24:18.273Z,9.80
2022-09-28T05:25:26.166Z,9.88
2022-09-28T05:26:38.413Z,9.90
2022-09-28T05:27:42.435Z,9.91
2022-09-28T05:28:58.801Z,9.83
2022-09-28T05:30:39.403Z,9.83
2022-09-28T05:32:01.620Z,9.76
2022-09-28T05:33:20.391Z,9.88
2022-09-28T05:34:31.321Z,9.74
2022-09-28T05:35:34.067Z,9.84
2022-09-28T05:36:37.004Z,9.75
2022-09-28T05:37:39.375Z,9.78
2022-09-28T05:38:41.715Z,9.76
2022-09-28T05:39:44.497Z,9.79
2022-09-28T05:40:47.121Z,9.65
2022-09-28T05:41:49.580Z,9.63
2022-09-28T05:42:51.720Z,9.68
2022-09-28T05:43:54.992Z,9.79
2022-09-28T05:45:00.702Z,9.74
2022-09-28T05:46:03.166Z,9.76
2022-09-28T05:47:05.433Z,9.66
2022-09-28T05:48:07.695Z,9.59
2022-09-28T05:49:09.996Z,9.67
2022-09-28T05:50:15.927Z,9.60
2022-09-28T05:51:19.031Z,9.72
2022-09-28T05:52:22.819Z,9.70
2022-09-28T05:53:25.253Z,9.73
2022-09-28T05:54:27.467Z,9.69
2022-09-28T05:55:30.101Z,9.71
2022-09-28T05:56:32.839Z,9.73
2022-09-28T05:57:35.089Z,9.64
2022-09-28T05:58:38.353Z,9.76
2022-09-28T05:59:40.754Z,9.67
2022-09-28T06:00:43.241Z,9.75
2022-09-28T06:01:45.722Z,9.76
2022-09-28T06:02:58.950Z,9.76
2022-09-28T06:04:01.582Z,9.72
2022-09-28T06:05:03.994Z,9.79
2022-09-28T06:06:06.361Z,9.69
2022-09-28T06:07:08.580Z,9.73
2022-09-28T06:08:11.494Z,9.73
2022-09-28T06:09:17.954Z,9.72
2022-09-28T06:10:47.560Z,9.85
2022-09-28T06:11:51.080Z,9.76
2022-09-28T06:13:00.704Z,9.66
2022-09-28T06:14:03.015Z,9.69
2022-09-28T06:15:07.534Z,9.72
2022-09-28T06:16:15.431Z,9.72
2022-09-28T06:17:17.842Z,9.73
2022-09-28T06:18:24.966Z,9.68
2022-09-28T06:19:40.309Z,9.76
2022-09-28T06:21:05.804Z,9.86
2022-09-28T06:22:11.574Z,9.84
2022-09-28T06:23:20.784Z,9.87
2022-09-28T06:24:23.161Z,9.76
2022-09-28T06:25:27.619Z,9.85
2022-09-28T06:26:30.007Z,9.76
2022-09-28T06:27:33.440Z,9.80
2022-09-28T06:28:35.687Z,9.82
2022-09-28T06:29:38.054Z,10.01
2022-09-28T06:30:41.835Z,9.90
2022-09-28T06:31:47.234Z,9.84
2022-09-28T06:32:53.741Z,10.04
2022-09-28T06:33:56.030Z,9.85
2022-09-28T06:34:58.410Z,9.96
2022-09-28T06:36:01.938Z,9.85
2022-09-28T06:37:04.600Z,9.84
2022-09-28T06:38:07.655Z,9.86
2022-09-28T06:39:09.910Z,9.89
2022-09-28T06:40:12.959Z,9.94
2022-09-28T06:41:15.488Z,10.13
2022-09-28T06:42:19.309Z,9.99
2022-09-28T06:44:00.006Z,10.00
2022-09-28T06:45:24.454Z,10.08
2022-09-28T06:46:58.747Z,10.10
2022-09-28T06:48:13.715Z,10.18
2022-09-28T06:49:19.562Z,10.31
2022-09-28T06:50:51.314Z,10.24
2022-09-28T06:52:04.676Z,10.06
2022-09-28T06:53:29.102Z,10.22
2022-09-28T06:54:37.678Z,10.29
2022-09-28T06:56:03.184Z,10.24
2022-09-28T06:57:06.075Z,10.17
2022-09-28T06:58:14.561Z,10.12
2022-09-28T06:59:17.104Z,10.01
2022-09-28T07:00:19.418Z,10.18
2022-09-28T07:01:22.782Z,10.04
2022-09-28T07:02:33.477Z,10.21
2022-09-28T07:03:40.341Z,10.18
2022-09-28T07:05:26.564Z,10.14
2022-09-28T07:06:54.176Z,10.15
2022-09-28T07:08:15.004Z,10.38
2022-09-28T07:09:42.675Z,10.66
2022-09-28T07:11:07.483Z,10.62
2022-09-28T07:12:36.156Z,10.50
2022-09-28T07:13:51.025Z,10.56
2022-09-28T07:14:57.447Z,10.56
2022-09-28T07:16:02.162Z,10.74
2022-09-28T07:17:13.850Z,10.81
2022-09-28T07:18:18.199Z,10.70
2022-09-28T07:19:20.577Z,10.72
2022-09-28T07:20:24.988Z,10.72
2022-09-28T07:21:30.524Z,10.65
2022-09-28T07:22:43.096Z,10.47
2022-09-28T07:23:53.954Z,10.54
2022-09-28T07:25:19.363Z,10.76
2022-09-28T07:26:45.371Z,10.93
2022-09-28T07:28:06.472Z,10.91
2022-09-28T07:29:31.886Z,10.81
2022-09-28T07:30:53.092Z,10.58
2022-09-28T07:32:28.481Z,10.81
2022-09-28T07:33:51.840Z,10.85
2022-09-28T07:35:07.990Z,10.87
2022-09-28T07:36:21.885Z,10.90
2022-09-28T07:37:26.536Z,10.94
2022-09-28T07:38:29.786Z,10.97
2022-09-28T07:39:52.546Z,11.02
2022-09-28T07:41:11.343Z,11.19
2022-09-28T07:42:18.357Z,11.82
2022-09-28T07:43:21.397Z,11.89
2022-09-28T07:44:25.906Z,12.31
2022-09-28T07:45:30.189Z,12.76
2022-09-28T07:46:33.912Z,12.50
2022-09-28T07:47:40.936Z,12.72
2022-09-28T07:49:11.420Z,12.67
2022-09-28T07:50:57.222Z,12.26
2022-09-28T07:52:10.680Z,12.14
2022-09-28T07:53:24.892Z,12.34
2022-09-28T07:54:44.913Z,12.34
2022-09-28T07:56:19.543Z,12.07
2022-09-28T07:57:42.150Z,12.10
2022-09-28T07:58:55.839Z,12.00
2022-09-28T08:00:16.558Z,12.29
2022-09-28T08:01:22.370Z,12.05
2022-09-28T08:02:26.393Z,12.22
2022-09-28T08:03:29.158Z,12.46
2022-09-28T08:04:31.804Z,12.61
2022-09-28T08:05:35.845Z,12.63
2022-09-28T08:06:40.482Z,12.55
2022-09-28T08:07:44.838Z,12.25
2022-09-28T08:08:47.851Z,12.04
2022-09-28T08:09:52.293Z,12.05
2022-09-28T08:11:06.393Z,12.27
2022-09-28T08:12:40.668Z,12.38
2022-09-28T08:14:02.186Z,12.42
2022-09-28T08:15:39.323Z,12.49
2022-09-28T08:16:53.379Z,12.47
2022-09-28T08:18:10.140Z,12.27
2022-09-28T08:19:13.020Z,12.40
2022-09-28T08:20:34.495Z,12.17
2022-09-28T08:21:45.859Z,12.03
2022-09-28T08:22:48.724Z,12.14
2022-09-28T08:23:51.637Z,12.25
2022-09-28T08:24:53.860Z,12.10
2022-09-28T08:25:56.367Z,12.03
2022-09-28T08:26:59.327Z,11.83
2022-09-28T08:28:07.049Z,11.84
2022-09-28T08:29:13.162Z,11.83
2022-09-28T08:30:24.539Z,11.97
2022-09-28T08:31:35.199Z,12.09
2022-09-28T08:32:53.484Z,12.32
2022-09-28T08:34:14.326Z,11.85
2022-09-28T08:35:35.191Z,12.08
2022-09-28T08:36:49.401Z,12.25
2022-09-28T08:38:20.526Z,12.28
2022-09-28T08:39:22.854Z,12.43
2022-09-28T08:40:44.886Z,12.08
2022-09-28T08:42:02.164Z,12.02
2022-09-28T08:43:51.685Z,12.19
2022-09-28T08:45:07.943Z,12.14
2022-09-28T08:46:27.163Z,12.16
2022-09-28T08:48:26.752Z,12.40
2022-09-28T08:49:50.210Z,12.28
2022-09-28T08:51:28.064Z,12.89
2022-09-28T08:52:48.550Z,13.03
2022-09-28T08:54:14.812Z,13.00
2022-09-28T08:55:33.541Z,12.92
2022-09-28T08:56:42.975Z,12.69
2022-09-28T08:57:55.239Z,12.38
2022-09-28T08:59:02.376Z,12.17
2022-09-28T09:00:11.094Z,11.93
2022-09-28T09:01:18.872Z,12.07
2022-09-28T09:02:39.268Z,11.85
2022-09-28T09:03:55.252Z,12.23
2022-09-28T09:05:19.899Z,12.27
2022-09-28T09:07:11.928Z,12.29
2022-09-28T09:08:45.151Z,12.47
2022-09-28T09:10:33.813Z,12.27
2022-09-28T09:11:52.170Z,12.32
2022-09-28T09:13:28.837Z,12.41
2022-09-28T09:14:53.189Z,11.90
2022-09-28T09:16:24.180Z,11.65
2022-09-28T09:17:47.952Z,11.59
2022-09-28T09:19:03.913Z,11.69
2022-09-28T09:20:36.009Z,11.83
2022-09-28T09:22:03.071Z,11.82
2022-09-28T09:23:49.727Z,11.56
2022-09-28T09:25:18.182Z,11.53
2022-09-28T09:26:30.800Z,11.69
2022-09-28T09:28:02.012Z,11.53
2022-09-28T09:29:32.018Z,11.85
2022-09-28T09:30:55.702Z,12.02
2022-09-28T09:32:38.476Z,12.07
2022-09-28T09:34:11.547Z,12.12
2022-09-28T09:35:54.754Z,12.11
2022-09-28T09:37:25.987Z,11.95
2022-09-28T09:39:11.356Z,11.85
2022-09-28T09:40:35.015Z,11.80
2022-09-28T09:42:02.387Z,11.65
2022-09-28T09:43:33.904Z,11.51
2022-09-28T09:45:07.822Z,11.63
2022-09-28T09:46:33.283Z,11.50
2022-09-28T09:47:58.252Z,11.73
2022-09-28T09:49:19.742Z,11.64
2022-09-28T09:50:30.648Z,11.52
2022-09-28T09:51:40.783Z,11.40
2022-09-28T09:52:57.592Z,11.26
2022-09-28T09:54:05.918Z,11.17
2022-09-28T09:55:29.853Z,11.51
2022-09-28T09:57:03.725Z,11.62
2022-09-28T09:58:27.064Z,11.67
2022-09-28T09:59:50.858Z,12.11
2022-09-28T10:01:07.290Z,12.58
2022-09-28T10:02:34.572Z,12.36
2022-09-28T10:03:49.582Z,13.03
2022-09-28T10:04:59.827Z,13.22
2022-09-28T10:06:22.067Z,12.86
2022-09-28T10:07:42.576Z,12.62
2022-09-28T10:08:52.701Z,12.87
2022-09-28T10:09:58.349Z,13.12
2022-09-28T10:11:37.605Z,12.70
2022-09-28T10:12:41.990Z,13.19
2022-09-28T10:13:48.653Z,13.42
2022-09-28T10:15:16.236Z,13.87
2022-09-28T10:16:37.621Z,14.04
2022-09-28T10:17:45.309Z,13.89
2022-09-28T10:19:05.887Z,13.92
2022-09-28T10:20:38.763Z,13.86
2022-09-28T10:21:52.763Z,13.43
2022-09-28T10:23:02.216Z,13.21
2022-09-28T10:24:04.995Z,13.13
2022-09-28T10:25:09.780Z,13.36
2022-09-28T10:26:25.371Z,13.62
2022-09-28T10:27:35.083Z,13.69
2022-09-28T10:28:47.414Z,13.44
2022-09-28T10:29:52.319Z,13.61
2022-09-28T10:30:54.522Z,13.67
2022-09-28T10:31:57.006Z,13.45
2022-09-28T10:33:02.490Z,13.61
2022-09-28T10:34:14.616Z,13.83
2022-09-28T10:35:31.621Z,13.47
2022-09-28T10:37:00.532Z,13.52
2022-09-28T10:38:17.375Z,13.69
2022-09-28T10:39:37.885Z,13.42
2022-09-28T10:40:45.183Z,13.58
2022-09-28T10:41:52.641Z,13.69
2022-09-28T10:43:02.787Z,13.52
2022-09-28T10:44:06.869Z,13.43
2022-09-28T10:45:24.175Z,13.26
2022-09-28T10:46:26.666Z,13.29
2022-09-28T10:47:34.641Z,13.48
2022-09-28T10:49:04.813Z,13.52
2022-09-28T10:50:23.596Z,13.41
2022-09-28T10:51:54.577Z,13.61
2022-09-28T10:53:19.785Z,13.48
2022-09-28T10:54:53.136Z,13.46
2022-09-28T10:55:59.772Z,13.30
2022-09-28T10:57:02.263Z,13.52
2022-09-28T10:58:36.139Z,13.87
2022-09-28T10:59:41.538Z,13.75
2022-09-28T11:01:19.855Z,13.62
2022-09-28T11:02:35.944Z,13.50
2022-09-28T11:03:59.755Z,13.74
2022-09-28T11:05:05.270Z,13.60
2022-09-28T11:06:15.831Z,13.98
2022-09-28T11:07:25.981Z,14.60
2022-09-28T11:08:36.239Z,14.41
2022-09-28T11:09:45.313Z,13.98
2022-09-28T11:11:02.650Z,13.86
2022-09-28T11:12:14.271Z,13.56
2022-09-28T11:13:16.677Z,13.45
2022-09-28T11:14:39.715Z,13.54
2022-09-28T11:15:47.418Z,13.81
2022-09-28T11:17:17.324Z,13.70
2022-09-28T11:18:32.586Z,13.56
2022-09-28T11:19:43.424Z,13.25
2022-09-28T11:20:46.376Z,12.93
2022-09-28T11:21:48.677Z,13.24
2022-09-28T11:22:53.692Z,13.29
2022-09-28T11:24:08.069Z,13.51
2022-09-28T11:25:18.930Z,13.50
2022-09-28T11:26:23.255Z,13.62
2022-09-28T11:27:27.272Z,13.73
2022-09-28T11:28:36.074Z,13.52
2022-09-28T11:29:51.494Z,13.30
2022-09-28T11:30:57.663Z,13.06
2022-09-28T11:32:11.398Z,13.12
2022-09-28T11:33:41.334Z,13.60
2022-09-28T11:34:59.311Z,13.73
2022-09-28T11:36:14.590Z,14.51
2022-09-28T11:37:32.547Z,14.63
2022-09-28T11:38:57.452Z,14.85
2022-09-28T11:40:29.855Z,14.43
2022-09-28T11:42:10.198Z,14.38
2022-09-28T11:43:53.956Z,14.12
2022-09-28T11:45:25.504Z,14.14
2022-09-28T11:46:48.606Z,13.51
2022-09-28T11:48:15.783Z,13.52
2022-09-28T11:49:20.350Z,13.80
2022-09-28T11:50:40.659Z,13.80
2022-09-28T11:51:46.264Z,13.89
2022-09-28T11:53:14.390Z,14.27
2022-09-28T11:54:31.431Z,14.67
2022-09-28T11:56:11.092Z,14.61
2022-09-28T11:57:23.432Z,14.11
2022-09-28T11:58:35.257Z,14.40
2022-09-28T12:00:03.751Z,14.17
2022-09-28T12:01:49.365Z,14.27
2022-09-28T12:03:31.295Z,14.99
2022-09-28T12:05:11.294Z,15.22
2022-09-28T12:06:22.818Z,14.95
2022-09-28T12:07:44.132Z,14.49
2022-09-28T12:09:37.244Z,14.56
2022-09-28T12:11:17.937Z,14.45
2022-09-28T12:13:25.902Z,14.40
2022-09-28T12:14:55.443Z,14.40
2022-09-28T12:17:04.904Z,14.41
2022-09-28T12:18:27.678Z,14.13
2022-09-28T12:20:19.810Z,14.46
2022-09-28T12:21:56.182Z,14.46
2022-09-28T12:23:09.532Z,14.56
2022-09-28T12:24:24.264Z,14.58
2022-09-28T12:25:34.266Z,14.86
2022-09-28T12:26:47.288Z,14.93
2022-09-28T12:28:07.637Z,14.97
2022-09-28T12:29:24.882Z,15.03
2022-09-28T12:30:34.400Z,14.94
2022-09-28T12:32:05.776Z,14.61
2022-09-28T12:33:15.495Z,14.68
2022-09-28T12:34:18.661Z,14.63
2022-09-28T12:35:48.572Z,14.33
2022-09-28T12:37:19.019Z,14.03
2022-09-28T12:38:42.646Z,14.39
2022-09-28T12:40:03.192Z,14.51
2022-09-28T12:41:34.365Z,14.70
2022-09-28T12:42:54.644Z,14.77
2022-09-28T12:44:28.787Z,15.05
2022-09-28T12:46:11.170Z,15.21
2022-09-28T12:47:31.759Z,14.34
2022-09-28T12:49:03.066Z,14.55
2022-09-28T12:50:39.601Z,14.51
2022-09-28T12:51:53.868Z,14.94
2022-09-28T12:53:25.735Z,14.98
2022-09-28T12:55:36.037Z,15.07
2022-09-28T12:57:06.639Z,15.61
2022-09-28T12:58:30.086Z,15.39
2022-09-28T12:59:38.238Z,15.40
2022-09-28T13:00:52.410Z,15.18
2022-09-28T13:02:36.921Z,14.83
2022-09-28T13:03:50.175Z,14.37
2022-09-28T13:04:57.990Z,14.11
2022-09-28T13:06:29.396Z,14.14
2022-09-28T13:07:50.724Z,14.13
2022-09-28T13:09:17.058Z,13.91
2022-09-28T13:10:40.340Z,13.67
2022-09-28T13:12:00.965Z,13.45
2022-09-28T13:13:08.900Z,13.48
2022-09-28T13:14:50.230Z,14.03
2022-09-28T13:16:17.566Z,14.25
2022-09-28T13:17:46.500Z,14.75
2022-09-28T13:19:04.021Z,15.21
2022-09-28T13:20:13.121Z,15.11
2022-09-28T13:21:43.810Z,14.64
2022-09-28T13:23:02.295Z,14.52
2022-09-28T13:24:20.912Z,14.27
2022-09-28T13:25:34.833Z,14.38
2022-09-28T13:26:43.912Z,14.71
2022-09-28T13:28:02.746Z,15.26
2022-09-28T13:29:12.987Z,15.58
2022-09-28T13:30:18.955Z,15.82
2022-09-28T13:31:33.173Z,15.55
2022-09-28T13:32:38.809Z,14.86
2022-09-28T13:33:44.882Z,14.56
2022-09-28T13:34:50.351Z,14.71
2022-09-28T13:35:52.525Z,14.42
2022-09-28T13:37:20.817Z,14.84
2022-09-28T13:38:22.890Z,14.54
2022-09-28T13:39:46.776Z,14.27
2022-09-28T13:41:03.964Z,14.27
2022-09-28T13:42:09.160Z,14.32
2022-09-28T13:43:34.165Z,14.57
2022-09-28T13:45:13.794Z,14.45
2022-09-28T13:46:53.028Z,14.31
2022-09-28T13:48:09.707Z,13.96
2022-09-28T13:49:31.096Z,14.07
2022-09-28T13:51:29.352Z,13.95
2022-09-28T13:52:45.288Z,13.85
2022-09-28T13:54:29.466Z,13.97
2022-09-28T13:55:53.864Z,14.24
2022-09-28T13:57:29.301Z,14.05
2022-09-28T13:58:38.239Z,14.04
2022-09-28T13:59:57.901Z,14.11
2022-09-28T14:01:10.598Z,14.28
2022-09-28T14:02:36.737Z,14.44
2022-09-28T14:03:43.809Z,14.52
2022-09-28T14:04:59.571Z,14.43
2022-09-28T14:06:10.838Z,14.30
2022-09-28T14:07:23.699Z,14.33
2022-09-28T14:08:38.363Z,14.26
2022-09-28T14:09:45.548Z,13.88
2022-09-28T14:10:51.576Z,13.98
2022-09-28T14:12:35.020Z,13.99
2022-09-28T14:13:42.870Z,13.88
2022-09-28T14:14:49.703Z,14.00
2022-09-28T14:15:52.352Z,14.14
2022-09-28T14:17:29.146Z,14.26
2022-09-28T14:18:33.945Z,14.08
2022-09-28T14:19:36.391Z,13.90
2022-09-28T14:20:58.355Z,13.92
2022-09-28T14:22:24.085Z,13.94
2022-09-28T14:23:35.988Z,14.02
2022-09-28T14:25:03.078Z,14.09
2022-09-28T14:26:11.221Z,14.05
2022-09-28T14:27:41.682Z,13.85
2022-09-28T14:29:01.778Z,13.93
2022-09-28T14:30:09.787Z,13.84
2022-09-28T14:31:24.923Z,13.89
2022-09-28T14:32:36.954Z,13.89
2022-09-28T14:33:39.467Z,13.94
2022-09-28T14:34:44.744Z,14.02
2022-09-28T14:36:03.913Z,13.85
2022-09-28T14:37:38.977Z,13.33
2022-09-28T14:39:07.827Z,13.43
2022-09-28T14:40:39.362Z,13.27
2022-09-28T14:41:43.150Z,13.55
2022-09-28T14:43:31.410Z,13.44
2022-09-28T14:45:06.228Z,13.73
2022-09-28T14:46:15.393Z,13.64
2022-09-28T14:47:36.146Z,13.46
2022-09-28T14:48:52.642Z,13.72
2022-09-28T14:50:17.708Z,13.51
2022-09-28T14:51:35.491Z,13.61
2022-09-28T14:52:46.214Z,13.76
2022-09-28T14:53:50.706Z,13.93
2022-09-28T14:54:55.408Z,13.73
2022-09-28T14:56:00.535Z,13.84
2022-09-28T14:57:15.239Z,13.78
2022-09-28T14:58:23.517Z,13.86
2022-09-28T14:59:25.611Z,13.77
2022-09-28T15:00:31.781Z,13.84
2022-09-28T15:01:35.971Z,13.59
2022-09-28T15:02:39.017Z,13.70
2022-09-28T15:03:43.656Z,13.51
2022-09-28T15:05:14.906Z,13.41
2022-09-28T15:06:19.644Z,13.43
2022-09-28T15:07:24.962Z,13.28
2022-09-28T15:08:39.956Z,13.29
2022-09-28T15:09:42.127Z,13.39
2022-09-28T15:10:46.955Z,13.31
2022-09-28T15:11:55.370Z,13.28
2022-09-28T15:13:01.322Z,13.21
2022-09-28T15:14:08.227Z,13.24
2022-09-28T15:15:25.753Z,13.33
2022-09-28T15:16:30.388Z,13.22
2022-09-28T15:17:39.410Z,13.21
2022-09-28T15:19:09.566Z,13.39
2022-09-28T15:20:35.247Z,13.59
2022-09-28T15:21:39.931Z,13.62
2022-09-28T15:22:46.918Z,13.83
2022-09-28T15:23:49.689Z,13.69
2022-09-28T15:25:02.934Z,13.84
2022-09-28T15:26:08.450Z,13.85
2022-09-28T15:27:15.849Z,13.62
2022-09-28T15:28:23.582Z,13.42
2022-09-28T15:29:28.108Z,13.55
2022-09-28T15:30:35.190Z,13.54
2022-09-28T15:31:38.207Z,13.43
2022-09-28T15:32:40.392Z,13.28
2022-09-28T15:34:01.426Z,13.32
2022-09-28T15:35:17.113Z,13.08
2022-09-28T15:36:21.025Z,13.19
2022-09-28T15:37:27.118Z,12.95
2022-09-28T15:38:32.321Z,12.89
2022-09-28T15:39:34.801Z,12.69
2022-09-28T15:40:39.420Z,12.87
2022-09-28T15:41:43.994Z,13.01
2022-09-28T15:42:46.726Z,13.03
2022-09-28T15:44:17.074Z,12.95
2022-09-28T15:45:27.794Z,12.85
2022-09-28T15:46:34.948Z,12.84
2022-09-28T15:47:39.924Z,12.74
2022-09-28T15:48:55.275Z,12.68
2022-09-28T15:50:19.040Z,12.88
2022-09-28T15:51:22.826Z,13.00
2022-09-28T15:52:27.829Z,12.94
2022-09-28T15:53:31.230Z,12.80
2022-09-28T15:54:43.873Z,12.98
2022-09-28T15:55:50.403Z,12.76
2022-09-28T15:57:02.426Z,12.65
2022-09-28T15:58:17.779Z,12.72
2022-09-28T15:59:23.095Z,12.81
2022-09-28T16:00:30.650Z,12.71
2022-09-28T16:01:37.751Z,12.66
2022-09-28T16:03:08.818Z,12.67
2022-09-28T16:04:36.307Z,12.62
2022-09-28T16:05:48.516Z,12.35
2022-09-28T16:07:09.317Z,12.35
2022-09-28T16:08:39.436Z,12.22